Time;durP1;ratioP1;P1;durP2;ratioP2;P2;SDS_P1;SDS_P2;PMS_P1;PMS_P2;Temp;Humidity;BMP_temperature;BMP_pressure;BME280_temperature;BME280_humidity;BME280_pressure;Samples;Min_cycle;Max_cycle;Signal;HPM_P1;HPM_P2
2023/03/21 00:02:03;;;;;;;0.70;0.70;;;;;;;1.48;65.04;98833.19;4897805;29;20053;-84
2023/03/21 00:04:32;;;;;;;0.80;0.80;;;;;;;1.41;64.98;98824.31;4866023;29;20135;-83
2023/03/21 00:07:17;;;;;;;0.87;0.87;;;;;;;1.36;64.95;98819.56;4898010;29;20136;-83
2023/03/21 00:09:44;;;;;;;0.70;0.70;;;;;;;1.40;64.96;98814.69;4880782;29;20405;-83
2023/03/21 00:12:11;;;;;;;0.80;0.80;;;;;;;1.42;65.00;98816.16;4897819;29;20427;-83
2023/03/21 00:14:38;;;;;;;0.90;0.90;;;;;;;1.30;64.97;98791.09;4913064;29;20542;-84
2023/03/21 00:17:06;;;;;;;0.90;0.90;;;;;;;1.48;64.88;98825.19;4899534;29;20071;-83
2023/03/21 00:19:37;;;;;;;0.80;0.80;;;;;;;1.44;64.96;98827.44;4916671;29;20052;-83
2023/03/21 00:22:04;;;;;;;0.90;0.90;;;;;;;1.47;65.26;98827.03;4916255;29;20108;-83
2023/03/21 00:24:35;;;;;;;0.90;0.90;;;;;;;1.47;65.19;98821.72;4899284;29;20104;-83
2023/03/21 00:27:02;;;;;;;0.80;0.80;;;;;;;1.39;65.37;98810.38;4916403;29;20059;-84
2023/03/21 00:29:49;;;;;;;0.90;0.90;;;;;;;1.21;65.31;98790.38;4916113;29;20056;-83
2023/03/21 00:32:20;;;;;;;1.00;1.00;;;;;;;1.39;65.55;98815.69;4915193;29;20502;-83
2023/03/21 00:34:49;;;;;;;0.80;0.80;;;;;;;1.43;65.51;98816.97;4913821;29;20818;-83
2023/03/21 00:37:36;;;;;;;0.77;0.77;;;;;;;1.31;65.40;98792.72;4916126;29;20052;-83
2023/03/21 00:40:09;;;;;;;0.90;0.90;;;;;;;1.43;65.54;98804.50;4914783;29;20100;-84
2023/03/21 00:42:53;;;;;;;0.90;0.90;;;;;;;1.29;65.41;98773.47;4915002;29;20051;-83
2023/03/21 00:45:20;;;;;;;0.90;0.90;;;;;;;1.55;65.51;98804.81;4916057;29;20063;-84
2023/03/21 00:47:48;;;;;;;0.85;0.85;;;;;;;1.52;65.28;98811.34;4898881;29;20048;-83
2023/03/21 00:50:16;;;;;;;0.63;0.63;;;;;;;1.47;65.26;98794.31;4916311;29;20075;-83
2023/03/21 00:52:43;;;;;;;0.73;0.73;;;;;;;1.39;65.60;98784.59;4914553;29;20472;-83
2023/03/21 00:55:15;;;;;;;0.80;0.80;;;;;;;1.38;65.54;98782.97;4916127;29;20111;-83
2023/03/21 00:57:44;;;;;;;0.80;0.80;;;;;;;1.38;65.78;98787.47;4914612;29;20055;-83
2023/03/21 01:00:18;;;;;;;0.90;0.90;;;;;;;1.45;65.67;98789.16;4915982;29;20135;-83
2023/03/21 01:02:57;;;;;;;0.80;0.80;;;;;;;1.45;65.80;98777.72;4915907;29;20048;-83
2023/03/21 01:06:06;;;;;;;0.80;0.80;;;;;;;1.54;65.55;98794.34;4915510;29;20503;-83
2023/03/21 01:08:39;;;;;;;0.85;0.85;;;;;;;1.48;65.76;98782.66;4915573;29;20076;-83
2023/03/21 01:11:26;;;;;;;0.90;0.90;;;;;;;1.53;65.73;98790.88;4883178;29;20486;-84
2023/03/21 01:13:54;;;;;;;0.80;0.80;;;;;;;1.38;65.48;98756.38;4898703;29;20148;-84
2023/03/21 01:16:42;;;;;;;0.77;0.77;;;;;;;1.45;65.49;98761.75;4916310;29;20123;-84
2023/03/21 01:19:16;;;;;;;0.65;0.65;;;;;;;1.55;65.64;98772.91;4905615;29;20056;-84
2023/03/21 01:21:55;;;;;;;0.80;0.80;;;;;;;1.47;65.59;98763.22;4915299;29;20080;-84
2023/03/21 01:24:25;;;;;;;0.80;0.80;;;;;;;1.56;65.66;98774.53;4915282;29;20108;-83
2023/03/21 01:26:52;;;;;;;0.80;0.80;;;;;;;1.59;65.33;98760.84;4898173;29;20420;-84
2023/03/21 01:29:19;;;;;;;0.70;0.70;;;;;;;1.61;65.51;98768.63;4898155;29;20056;-84
2023/03/21 01:31:46;;;;;;;0.80;0.80;;;;;;;1.52;65.55;98763.47;4898330;29;20071;-83
2023/03/21 01:34:14;;;;;;;0.80;0.80;;;;;;;1.43;65.80;98756.63;4914040;29;20142;-84
2023/03/21 01:36:42;;;;;;;0.80;0.80;;;;;;;1.57;65.69;98760.22;4882675;29;20111;-84
2023/03/21 01:39:14;;;;;;;0.70;0.70;;;;;;;1.58;65.80;98769.84;4913921;29;20040;-84
2023/03/21 01:41:42;;;;;;;0.80;0.80;;;;;;;1.50;65.90;98759.34;4914671;29;20500;-84
2023/03/21 01:44:19;;;;;;;0.90;0.90;;;;;;;1.54;65.87;98765.91;4913795;29;20063;-84
2023/03/21 01:46:51;;;;;;;0.70;0.70;;;;;;;1.58;65.84;98772.50;4897501;29;20826;-84
2023/03/21 01:49:46;;;;;;;0.80;0.80;;;;;;;1.43;66.25;98763.78;4897825;29;20048;-84
2023/03/21 01:52:36;;;;;;;0.70;0.70;;;;;;;1.38;66.35;98767.00;4914238;29;20052;-84
2023/03/21 01:55:12;;;;;;;0.80;0.80;;;;;;;1.30;66.41;98748.53;4897850;29;20126;-84
2023/03/21 01:57:53;;;;;;;0.70;0.70;;;;;;;1.38;66.68;98766.19;4899564;29;20059;-84
2023/03/21 02:01:08;;;;;;;0.75;0.75;;;;;;;1.21;67.18;98739.03;4865605;29;20143;-83
2023/03/21 02:03:49;;;;;;;0.82;0.82;;;;;;;1.14;67.12;98731.03;4871580;29;20053;-83
2023/03/21 02:06:48;;;;;;;0.80;0.80;;;;;;;1.09;67.23;98722.78;4827684;29;20076;-83
2023/03/21 02:09:32;;;;;;;0.90;0.90;;;;;;;1.10;67.40;98739.56;4871653;29;20090;-82
2023/03/21 02:12:00;;;;;;;0.80;0.80;;;;;;;1.20;67.57;98743.53;4825640;29;20450;-84
2023/03/21 02:14:32;;;;;;;0.70;0.70;;;;;;;1.01;67.88;98737.03;4840993;29;20061;-83
2023/03/21 02:17:31;;;;;;;0.80;0.80;;;;;;;1.16;68.05;98747.56;4826234;29;20046;-84
2023/03/21 02:20:20;;;;;;;0.70;0.70;;;;;;;1.17;68.05;98753.75;4840450;29;20086;-83
2023/03/21 02:23:04;;;;;;;0.70;0.70;;;;;;;1.14;67.98;98749.63;4871318;29;20815;-83
2023/03/21 02:26:05;;;;;;;0.80;0.80;;;;;;;1.10;68.31;98736.91;4856099;29;20061;-83
2023/03/21 02:28:49;;;;;;;0.77;0.77;;;;;;;1.07;68.30;98732.78;4871486;29;20543;-84
2023/03/21 02:31:23;;;;;;;0.75;0.75;;;;;;;1.08;68.33;98729.91;4855992;29;20058;-83
2023/03/21 02:34:14;;;;;;;0.80;0.80;;;;;;;1.12;68.26;98729.56;4855788;29;20061;-84
2023/03/21 02:37:02;;;;;;;0.70;0.70;;;;;;;1.09;68.36;98725.44;4897193;29;20083;-85
2023/03/21 02:40:06;;;;;;;0.75;0.75;;;;;;;1.10;68.42;98727.09;4897886;29;20131;-83
2023/03/21 02:43:14;;;;;;;0.68;0.68;;;;;;;1.10;68.36;98724.44;4896983;29;20051;-84
2023/03/21 02:45:57;;;;;;;0.80;0.80;;;;;;;1.11;68.26;98717.28;4872757;29;20063;-83
2023/03/21 02:48:38;;;;;;;0.85;0.85;;;;;;;0.98;68.18;98704.69;4897206;29;20075;-83
2023/03/21 02:51:20;;;;;;;0.90;0.90;;;;;;;0.94;68.44;98696.28;4913105;29;20108;-84
2023/03/21 02:53:51;;;;;;;0.80;0.80;;;;;;;1.14;68.50;98720.38;4897048;29;20104;-84
2023/03/21 02:56:39;;;;;;;0.70;0.70;;;;;;;0.97;68.47;98700.41;4884333;29;20052;-83
2023/03/21 02:59:06;;;;;;;0.80;0.80;;;;;;;1.12;68.40;98714.44;4900666;29;20048;-83
2023/03/21 03:01:34;;;;;;;0.80;0.80;;;;;;;1.00;68.36;98695.50;4868608;29;20063;-84
2023/03/21 03:04:02;;;;;;;0.70;0.70;;;;;;;1.09;68.40;98709.50;4901265;29;20119;-85
2023/03/21 03:06:40;;;;;;;0.80;0.80;;;;;;;1.00;68.49;98707.97;4918299;29;20139;-83
2023/03/21 03:09:17;;;;;;;0.77;0.77;;;;;;;1.11;68.56;98723.41;4870690;29;20052;-85
2023/03/21 03:11:51;;;;;;;0.90;0.90;;;;;;;0.99;68.73;98707.16;4901884;29;20080;-84
2023/03/21 03:14:41;;;;;;;0.93;0.93;;;;;;;1.01;68.97;98715.78;4885183;29;20052;-83
2023/03/21 03:17:47;;;;;;;0.70;0.70;;;;;;;0.93;69.13;98709.75;4885818;29;20111;-84
2023/03/21 03:20:43;;;;;;;0.60;0.60;;;;;;;0.95;69.22;98707.72;4869659;29;20116;-84
2023/03/21 03:23:16;;;;;;;0.70;0.70;;;;;;;0.95;69.38;98705.06;4869458;29;20052;-83
2023/03/21 03:25:57;;;;;;;0.80;0.80;;;;;;;0.95;69.72;98699.75;4907203;29;20084;-83
2023/03/21 03:28:29;;;;;;;0.73;0.73;;;;;;;0.91;69.57;98695.81;4896842;29;20049;-84
2023/03/21 03:31:02;;;;;;;0.80;0.80;;;;;;;0.94;69.30;98690.97;4882161;29;20171;-83
2023/03/21 03:33:45;;;;;;;0.90;0.90;;;;;;;0.96;69.36;98698.72;4885583;29;20059;-82
2023/03/21 03:36:14;;;;;;;0.75;0.75;;;;;;;0.83;69.36;98678.16;4899536;29;20056;-82
2023/03/21 03:39:04;;;;;;;0.80;0.80;;;;;;;0.89;69.85;98690.72;4886224;29;20104;-83
2023/03/21 03:41:39;;;;;;;0.90;0.90;;;;;;;1.01;69.76;98706.94;4869180;29;20078;-83
2023/03/21 03:44:35;;;;;;;0.90;0.90;;;;;;;0.98;69.56;98702.03;4887152;29;20079;-83
2023/03/21 03:47:37;;;;;;;0.70;0.70;;;;;;;0.93;69.83;98699.13;4894625;29;20052;-82
2023/03/21 03:50:46;;;;;;;0.80;0.80;;;;;;;0.86;69.88;98699.88;4883595;29;20128;-81
2023/03/21 03:53:24;;;;;;;0.80;0.80;;;;;;;0.74;70.22;98674.84;4895768;29;20703;-83
2023/03/21 03:55:55;;;;;;;0.80;0.80;;;;;;;0.77;70.52;98670.97;4880671;29;20060;-83
2023/03/21 03:58:24;;;;;;;0.80;0.80;;;;;;;0.76;70.38;98678.13;4865546;29;20048;-84
2023/03/21 04:01:12;;;;;;;0.80;0.80;;;;;;;0.82;70.29;98677.34;4882865;29;20151;-83
2023/03/21 04:03:42;;;;;;;0.80;0.80;;;;;;;0.90;70.17;98678.25;4534845;29;9999910;-84
2023/03/21 04:06:18;;;;;;;0.80;0.80;;;;;;;0.96;70.07;98685.44;4877607;29;20060;-82
2023/03/21 04:08:52;;;;;;;0.90;0.90;;;;;;;1.04;70.06;98682.69;4877292;29;20791;-86
2023/03/21 04:11:23;;;;;;;0.90;0.90;;;;;;;1.04;70.09;98690.66;4892933;29;20500;-83
2023/03/21 04:13:52;;;;;;;0.77;0.77;;;;;;;1.06;69.91;98677.97;4877338;29;20059;-83
2023/03/21 04:16:22;;;;;;;0.80;0.80;;;;;;;1.04;69.89;98683.50;4880573;29;20563;-83
2023/03/21 04:18:51;;;;;;;0.80;0.80;;;;;;;0.86;69.80;98646.75;4896121;29;20068;-83
2023/03/21 04:21:18;;;;;;;0.70;0.70;;;;;;;1.04;69.73;98682.69;4881718;29;20507;-83
2023/03/21 04:23:45;;;;;;;0.90;0.90;;;;;;;0.95;69.75;98670.53;4899035;29;20052;-83
2023/03/21 04:26:13;;;;;;;0.80;0.80;;;;;;;1.00;69.83;98670.78;4557552;29;10000144;-83
2023/03/21 04:28:50;;;;;;;0.90;0.90;;;;;;;1.04;69.43;98678.19;4866312;29;20060;-84
2023/03/21 04:31:40;;;;;;;0.80;0.80;;;;;;;1.03;69.69;98673.84;4816764;29;20094;-84
2023/03/21 04:34:11;;;;;;;0.80;0.80;;;;;;;1.03;69.68;98676.53;4791836;29;20050;-85
2023/03/21 04:36:46;;;;;;;;;;;;;;;1.13;69.60;98684.16;4786686;29;20105;-83
2023/03/21 04:39:14;;;;;;;0.90;0.90;;;;;;;1.00;69.40;98671.59;4809794;29;19928;-84
2023/03/21 04:41:48;;;;;;;0.80;0.80;;;;;;;1.18;69.41;98687.06;4780770;29;20065;-83
2023/03/21 04:44:16;;;;;;;0.80;0.80;;;;;;;1.17;69.40;98696.06;4789146;29;20500;-83
2023/03/21 04:46:44;;;;;;;0.70;0.70;;;;;;;1.12;69.34;98690.50;4780964;30;20070;-84
2023/03/21 04:49:17;;;;;;;0.80;0.80;;;;;;;1.14;69.53;98684.97;4766740;30;20048;-82
2023/03/21 04:51:45;;;;;;;0.80;0.80;;;;;;;1.08;69.51;98681.25;4802423;29;20055;-83
2023/03/21 04:54:17;;;;;;;0.80;0.80;;;;;;;1.12;69.61;98676.41;4800415;29;21218;-82
2023/03/21 04:56:44;;;;;;;0.90;0.90;;;;;;;1.07;69.52;98669.00;4768473;29;20059;-83
2023/03/21 04:59:14;;;;;;;0.80;0.80;;;;;;;1.11;69.62;98672.09;4784564;29;20058;-82
2023/03/21 05:01:42;;;;;;;0.70;0.70;;;;;;;1.06;69.63;98664.69;4799183;29;20495;-84
2023/03/21 05:04:12;;;;;;;0.70;0.70;;;;;;;1.15;69.51;98681.34;4788257;29;20542;-81
2023/03/21 05:06:41;;;;;;;0.70;0.70;;;;;;;1.12;69.58;98671.91;4802099;29;20055;-83
2023/03/21 05:09:09;;;;;;;0.80;0.80;;;;;;;1.21;69.74;98668.06;4857786;29;20075;-82
2023/03/21 05:11:39;;;;;;;0.90;0.90;;;;;;;1.32;69.36;98671.22;4911230;29;20171;-84
2023/03/21 05:14:10;;;;;;;0.90;0.90;;;;;;;1.30;69.14;98656.28;4890080;29;20066;-83
2023/03/21 05:16:43;;;;;;;0.70;0.70;;;;;;;1.52;68.87;98688.16;4872104;29;20047;-83
2023/03/21 05:19:16;;;;;;;0.90;0.90;;;;;;;1.50;68.61;98682.22;4884898;29;20067;-83
2023/03/21 05:21:45;;;;;;;0.90;0.90;;;;;;;1.55;68.42;98679.81;4913554;29;20054;-83
2023/03/21 05:24:22;;;;;;;0.90;0.90;;;;;;;1.57;68.32;98658.31;4879479;29;20071;-83
2023/03/21 05:26:51;;;;;;;0.90;0.90;;;;;;;1.77;67.86;98680.53;4901835;29;20116;-86
2023/03/21 05:29:22;;;;;;;0.90;0.90;;;;;;;1.77;67.54;98679.72;4897352;29;20044;-81
2023/03/21 05:32:12;;;;;;;0.90;0.90;;;;;;;1.49;67.25;98657.47;4907437;29;20075;-82
2023/03/21 05:34:41;;;;;;;0.88;0.88;;;;;;;1.57;67.41;98667.13;4880736;29;20056;-82
2023/03/21 05:37:12;;;;;;;1.00;1.00;;;;;;;1.57;67.46;98664.47;4898958;29;20155;-82
2023/03/21 05:39:44;;;;;;;0.90;0.90;;;;;;;1.84;67.17;98680.59;4913516;29;20043;-82
2023/03/21 05:42:26;;;;;;;0.90;0.90;;;;;;;1.76;66.58;98662.13;4898087;29;20127;-82
2023/03/21 05:44:54;;;;;;;1.00;1.00;;;;;;;1.86;66.49;98675.88;4897874;29;20140;-82
2023/03/21 05:47:29;;;;;;;0.80;0.80;;;;;;;1.93;66.45;98682.06;4898058;29;20060;-82
2023/03/21 05:49:59;;;;;;;0.80;0.80;;;;;;;1.86;65.75;98662.59;4881941;29;20051;-82
2023/03/21 05:52:28;;;;;;;0.90;0.90;;;;;;;1.96;65.64;98681.69;4897815;29;20048;-82
2023/03/21 05:54:57;;;;;;;0.90;0.90;;;;;;;1.94;65.76;98662.41;4897351;29;20051;-82
2023/03/21 05:57:27;;;;;;;0.90;0.90;;;;;;;1.93;65.31;98653.63;4897758;29;20048;-82
2023/03/21 06:00:01;;;;;;;0.80;0.80;;;;;;;1.99;65.15;98667.97;4897649;29;20330;-82
2023/03/21 06:02:34;;;;;;;0.90;0.90;;;;;;;1.96;65.33;98671.03;4914310;29;20098;-82
2023/03/21 06:19:11;;;;;;;0.73;0.73;;;;;;;2.18;64.95;98679.75;4994755;23;20479;31
2023/03/21 06:22:11;;;;;;;0.90;0.90;;;;;;;2.24;64.76;98673.63;4886824;29;19911;-91
2023/03/21 06:24:44;;;;;;;0.90;0.90;;;;;;;2.31;64.84;98655.81;4920915;29;20048;-92
2023/03/21 06:27:26;;;;;;;0.90;0.90;;;;;;;2.41;64.47;98650.13;4901682;29;20036;-93
2023/03/21 06:30:11;;;;;;;0.82;0.82;;;;;;;2.62;63.75;98651.00;4917786;29;20081;-93
2023/03/21 06:33:13;;;;;;;0.70;0.70;;;;;;;2.75;63.25;98653.66;4907958;29;20048;-93
2023/03/21 06:35:53;;;;;;;0.90;0.90;;;;;;;2.87;63.35;98653.91;4908707;29;20412;-92
2023/03/21 06:42:44;;;;;;;0.90;0.90;;;;;;;3.22;62.44;98651.88;4914352;29;20124;-94
2023/03/21 06:45:26;;;;;;;0.80;0.80;;;;;;;3.09;62.17;98643.84;4907752;29;20064;-93
2023/03/21 06:48:03;;;;;;;0.90;0.90;;;;;;;2.97;62.03;98633.81;4879385;29;20412;-93
2023/03/21 06:50:41;;;;;;;0.90;0.90;;;;;;;2.96;62.13;98653.50;4872436;29;20084;-93
2023/03/21 06:53:34;;;;;;;0.80;0.80;;;;;;;2.97;62.50;98649.00;4826331;29;20073;-94
2023/03/21 06:56:30;;;;;;;0.80;0.80;;;;;;;2.95;62.28;98627.84;4838787;29;20082;-94
2023/03/21 06:59:22;;;;;;;0.93;0.93;;;;;;;3.43;61.72;98646.31;4817395;29;20092;-93
2023/03/21 07:02:11;;;;;;;1.00;1.00;;;;;;;4.19;60.09;98636.03;4844265;29;20043;-91
2023/03/21 07:05:00;;;;;;;0.90;0.90;;;;;;;4.56;58.24;98637.09;4804980;29;20090;-90
2023/03/21 07:07:41;;;;;;;0.90;0.90;;;;;;;4.57;57.96;98633.38;4834923;29;20469;-94
2023/03/21 07:10:16;;;;;;;0.90;0.90;;;;;;;4.87;57.62;98630.94;4800070;29;20050;-93
2023/03/21 07:13:00;;;;;;;0.80;0.80;;;;;;;4.68;57.55;98627.34;4810395;29;20034;-94
2023/03/21 07:15:53;;;;;;;0.90;0.90;;;;;;;4.62;57.80;98603.34;4802973;29;20051;-93
2023/03/21 07:18:54;;;;;;;0.80;0.80;;;;;;;4.51;58.00;98616.34;4796061;29;20120;-93
2023/03/21 07:21:37;;;;;;;0.80;0.80;;;;;;;4.58;58.19;98618.97;4793582;29;20047;-93
2023/03/21 07:24:18;;;;;;;0.90;0.90;;;;;;;4.75;58.30;98608.59;4840716;29;20049;-94
2023/03/21 07:27:00;;;;;;;0.80;0.80;;;;;;;4.97;57.83;98606.38;4845629;29;20324;-92
2023/03/21 07:29:32;;;;;;;0.90;0.90;;;;;;;5.21;57.42;98623.44;4857505;29;20105;-92
2023/03/21 07:32:05;;;;;;;0.90;0.90;;;;;;;5.17;57.45;98612.38;4889319;29;20144;-91
2023/03/21 07:34:35;;;;;;;0.80;0.80;;;;;;;4.99;58.29;98617.69;4892628;29;20182;-93
2023/03/21 07:37:09;;;;;;;0.80;0.80;;;;;;;4.82;59.67;98619.25;4875965;29;20061;-91
2023/03/21 07:39:57;;;;;;;0.82;0.82;;;;;;;4.85;60.19;98619.63;4844038;29;20061;-93
2023/03/21 07:42:47;;;;;;;0.90;0.90;;;;;;;5.06;59.99;98621.09;4854222;29;20057;-92
2023/03/21 07:45:33;;;;;;;0.80;0.80;;;;;;;4.76;60.76;98594.16;4844321;29;20059;-92
2023/03/21 07:48:16;;;;;;;0.90;0.90;;;;;;;4.85;61.81;98613.47;4858248;29;20033;-92
2023/03/21 07:50:48;;;;;;;0.77;0.77;;;;;;;5.07;61.34;98611.25;4841490;29;20054;-91
2023/03/21 07:53:31;;;;;;;0.90;0.90;;;;;;;5.30;61.03;98613.31;4857899;29;20149;-92
2023/03/21 07:56:12;;;;;;;0.77;0.77;;;;;;;5.22;61.11;98617.88;4831680;29;20058;-91
2023/03/21 07:58:42;;;;;;;0.90;0.90;;;;;;;5.31;61.84;98605.03;4819597;29;20089;-91
2023/03/21 08:01:11;;;;;;;0.90;0.90;;;;;;;5.54;61.95;98614.28;4821897;29;20421;-93
2023/03/21 08:03:52;;;;;;;0.80;0.80;;;;;;;5.83;61.28;98600.19;4835958;29;20118;-92
2023/03/21 08:06:38;;;;;;;0.80;0.80;;;;;;;5.89;60.98;98593.13;4834905;29;20062;-92
2023/03/21 08:09:25;;;;;;;0.80;0.80;;;;;;;5.92;60.87;98611.41;4835274;29;20410;-92
2023/03/21 08:12:09;;;;;;;0.80;0.80;;;;;;;5.76;61.20;98612.81;4872863;29;20092;-92
2023/03/21 08:15:14;;;;;;;0.80;0.80;;;;;;;5.80;60.83;98597.97;4852431;29;20065;-92
2023/03/21 08:17:58;;;;;;;0.70;0.70;;;;;;;5.56;61.35;98596.97;4868790;29;20110;-93
2023/03/21 08:20:38;;;;;;;0.80;0.80;;;;;;;5.38;62.09;98600.44;4887977;29;20427;-92
2023/03/21 08:23:21;;;;;;;0.90;0.90;;;;;;;5.45;62.30;98603.06;4879056;29;20064;-92
2023/03/21 08:26:02;;;;;;;0.80;0.80;;;;;;;5.41;62.58;98604.53;4877943;29;20465;-92
2023/03/21 08:29:39;;;;;;;0.80;0.80;;;;;;;5.52;62.62;98606.50;4860188;29;20072;-92
2023/03/21 08:32:39;;;;;;;0.80;0.80;;;;;;;5.55;62.47;98595.34;4855680;29;20061;-91
2023/03/21 08:35:17;;;;;;;0.80;0.80;;;;;;;5.65;62.07;98592.97;4839896;29;20073;-91
2023/03/21 08:37:48;;;;;;;0.90;0.90;;;;;;;5.51;62.56;98604.03;4852755;29;20114;-93
2023/03/21 08:40:41;;;;;;;0.77;0.77;;;;;;;5.38;63.05;98602.31;4853004;29;20102;-93
2023/03/21 08:43:23;;;;;;;0.80;0.80;;;;;;;5.33;63.57;98604.84;4854109;29;20057;-93
2023/03/21 08:46:04;;;;;;;0.70;0.70;;;;;;;5.43;63.51;98607.81;4859323;29;20050;-93
2023/03/21 08:48:32;;;;;;;0.70;0.70;;;;;;;5.56;63.39;98594.28;4862779;29;20057;-92
2023/03/21 08:51:13;;;;;;;0.80;0.80;;;;;;;5.62;63.18;98598.78;4813491;29;20110;-92
2023/03/21 08:53:55;;;;;;;0.80;0.80;;;;;;;5.55;63.76;98603.38;4799844;29;20126;-92
2023/03/21 08:56:24;;;;;;;0.70;0.70;;;;;;;5.56;64.22;98610.34;4805721;29;20170;-92
2023/03/21 08:59:10;;;;;;;0.63;0.63;;;;;;;5.21;65.86;98618.91;4800006;29;20054;-92
2023/03/21 09:01:51;;;;;;;0.73;0.73;;;;;;;4.71;67.90;98608.22;4813482;29;20042;-91
2023/03/21 09:04:24;;;;;;;0.80;0.80;;;;;;;4.37;69.49;98601.41;4807949;29;20085;-92
2023/03/21 09:06:55;;;;;;;0.80;0.80;;;;;;;4.25;70.93;98593.25;4804367;29;20126;-92
2023/03/21 09:09:22;;;;;;;0.80;0.80;;;;;;;4.34;71.52;98608.00;4802610;29;20165;-92
2023/03/21 09:11:55;;;;;;;0.80;0.80;;;;;;;4.51;71.32;98602.19;4822080;29;20118;-92
2023/03/21 09:14:40;;;;;;;0.80;0.80;;;;;;;4.65;71.36;98598.38;4775027;30;20070;-92
2023/03/21 09:17:22;;;;;;;;;;;;;;;4.89;70.96;98607.47;4805463;29;20067;-91
2023/03/21 09:20:09;;;;;;;0.90;0.90;;;;;;;5.04;70.85;98612.50;4786960;30;19959;-92
2023/03/21 09:22:40;;;;;;;0.90;0.90;;;;;;;4.98;70.38;98594.63;4844670;29;20073;-91
2023/03/21 09:25:15;;;;;;;0.90;0.90;;;;;;;5.24;70.83;98606.97;4839798;29;20119;-92
2023/03/21 09:27:46;;;;;;;0.93;0.93;;;;;;;5.65;69.95;98592.97;4836359;23;20045;31
2023/03/21 09:31:10;;;;;;;0.90;0.90;;;;;;;6.29;67.59;98608.72;4558848;29;10001719;-91
2023/03/21 09:34:07;;;;;;;0.90;0.90;;;;;;;6.44;65.82;98582.34;4891090;29;20036;-90
2023/03/21 09:36:42;;;;;;;0.90;0.90;;;;;;;7.47;63.73;98596.38;4858044;29;20060;-91
2023/03/21 09:39:57;;;;;;;0.90;0.90;;;;;;;8.46;60.23;98595.47;4864291;29;20038;-90
2023/03/21 09:43:19;;;;;;;1.00;1.00;;;;;;;8.30;59.43;98586.25;4881545;29;20110;-89
2023/03/21 09:46:37;;;;;;;0.95;0.95;;;;;;;9.15;58.74;98591.81;4848523;29;20063;-93
2023/03/21 09:49:42;;;;;;;0.82;0.82;;;;;;;9.75;56.13;98564.13;4849782;29;20162;-93
2023/03/21 09:52:42;;;;;;;1.00;1.00;;;;;;;9.97;53.72;98564.13;4856652;29;20152;-94
2023/03/21 09:55:25;;;;;;;1.00;1.00;;;;;;;10.36;53.67;98542.47;4858249;29;20129;-92
2023/03/21 09:59:02;;;;;;;0.93;0.93;;;;;;;11.47;50.76;98567.97;4851481;29;20068;-93
2023/03/21 10:02:21;;;;;;;1.00;1.00;;;;;;;11.21;50.44;98542.66;4848690;29;20114;-93
2023/03/21 10:04:51;;;;;;;1.00;1.00;;;;;;;11.80;49.54;98552.44;4841093;29;20068;-93
2023/03/21 10:08:13;;;;;;;0.70;0.70;;;;;;;11.42;49.92;98551.69;4828205;29;20138;-93
2023/03/21 10:11:42;;;;;;;0.70;0.70;;;;;;;10.17;52.27;98542.78;4810827;29;20046;-93
2023/03/21 10:14:51;;;;;;;0.80;0.80;;;;;;;9.61;53.86;98549.38;4777725;29;20052;-90
2023/03/21 10:18:13;;;;;;;0.70;0.70;;;;;;;8.89;55.39;98538.38;4786206;29;20072;-91
2023/03/21 10:24:27;;;;;;;0.80;0.80;;;;;;;8.33;57.04;98534.72;5220618;23;19911;-94
2023/03/21 10:27:12;;;;;;;0.80;0.80;;;;;;;8.41;56.76;98528.16;4906057;29;20032;-93
2023/03/21 10:30:01;;;;;;;0.80;0.80;;;;;;;9.10;55.64;98531.44;4893030;29;20580;-93
2023/03/21 10:32:32;;;;;;;0.90;0.90;;;;;;;9.92;53.70;98543.28;4879850;29;20025;-93
2023/03/21 10:35:18;;;;;;;0.90;0.90;;;;;;;10.99;50.40;98523.88;4829196;29;20058;-95
2023/03/21 10:38:18;;;;;;;0.90;0.90;;;;;;;12.17;47.19;98521.78;4780370;30;20046;-94
2023/03/21 10:41:39;;;;;;;0.80;0.80;;;;;;;11.65;47.52;98509.94;4780297;29;20047;-93
2023/03/21 10:44:55;;;;;;;0.80;0.80;;;;;;;11.24;47.68;98499.75;4734949;30;20052;-93
2023/03/21 10:48:08;;;;;;;0.70;0.70;;;;;;;10.55;48.27;98529.44;4664300;30;20164;-87
2023/03/21 10:50:38;;;;;;;0.80;0.80;;;;;;;10.28;48.07;98526.72;4676776;30;20145;-88
2023/03/21 10:53:32;;;;;;;0.80;0.80;;;;;;;9.85;48.62;98504.13;4651286;30;20430;-89
2023/03/21 10:56:26;;;;;;;0.70;0.70;;;;;;;9.48;49.12;98521.72;4674739;30;20066;-91
2023/03/21 10:58:58;;;;;;;1.10;1.10;;;;;;;9.47;49.46;98498.56;4673228;30;20057;-92
2023/03/21 11:01:47;;;;;;;0.95;0.95;;;;;;;11.59;45.18;98503.69;4669151;30;20055;-90
2023/03/21 11:04:19;;;;;;;1.00;1.00;;;;;;;12.28;43.83;98521.56;4661668;30;20062;-92
2023/03/21 11:07:08;;;;;;;1.05;1.05;;;;;;;13.42;41.02;98518.59;4909650;23;20066;-93
2023/03/21 11:10:13;;;;;;;1.10;1.10;;;;;;;15.16;38.95;98519.50;4870038;29;20417;-90
2023/03/21 11:12:58;;;;;;;1.10;1.10;;;;;;;16.32;35.63;98504.81;4863357;29;20117;-93
2023/03/21 11:15:59;;;;;;;1.00;1.00;;;;;;;16.80;34.58;98518.28;4834499;29;20046;-91
2023/03/21 11:18:50;;;;;;;1.00;1.00;;;;;;;16.45;34.04;98503.28;4868157;29;20041;-91
2023/03/21 11:21:39;;;;;;;0.90;0.90;;;;;;;15.79;35.01;98516.66;4851127;29;20037;-90
2023/03/21 11:24:15;;;;;;;1.00;1.00;;;;;;;16.78;34.03;98509.59;4847338;29;20057;-90
2023/03/21 11:26:47;;;;;;;0.90;0.90;;;;;;;16.51;33.33;98498.56;4875432;29;20053;-90
2023/03/21 11:29:56;;;;;;;0.90;0.90;;;;;;;17.10;33.08;98508.00;4878319;29;20548;-91
2023/03/21 11:32:56;;;;;;;0.80;0.80;;;;;;;16.06;33.51;98479.88;4878839;29;20030;-91
2023/03/21 11:35:40;;;;;;;0.70;0.70;;;;;;;13.78;36.25;98502.19;4853922;29;20072;-90
2023/03/21 11:38:29;;;;;;;1.00;1.00;;;;;;;14.29;36.41;98482.94;4824821;29;20055;-92
2023/03/21 11:41:00;;;;;;;0.90;0.90;;;;;;;16.34;33.23;98489.00;4814044;29;20063;-86
2023/03/21 11:43:31;;;;;;;0.90;0.90;;;;;;;15.06;34.60;98486.97;4801123;29;20148;-83
2023/03/21 11:46:00;;;;;;;0.90;0.90;;;;;;;15.21;34.40;98483.31;4838127;29;20061;-88
2023/03/21 11:48:42;;;;;;;0.90;0.90;;;;;;;16.22;33.11;98475.81;4844530;29;20560;-88
2023/03/21 11:51:21;;;;;;;0.90;0.90;;;;;;;16.71;32.24;98471.00;4830469;29;20054;-87
2023/03/21 11:54:10;;;;;;;0.80;0.80;;;;;;;15.91;32.90;98478.16;4832174;29;20104;-88
2023/03/21 11:56:43;;;;;;;0.90;0.90;;;;;;;15.56;32.71;98471.22;4835195;29;20061;-89
2023/03/21 11:59:31;;;;;;;0.68;0.68;;;;;;;14.06;34.93;98453.78;4825192;29;20070;-88
2023/03/21 12:02:36;;;;;;;0.70;0.70;;;;;;;13.36;36.10;98473.59;4830108;29;20541;-89
2023/03/21 12:05:18;;;;;;;0.90;0.90;;;;;;;13.28;35.41;98466.03;4816969;29;20081;-88
2023/03/21 12:08:05;;;;;;;0.90;0.90;;;;;;;14.32;34.41;98454.41;4795163;29;20063;-87
2023/03/21 12:10:46;;;;;;;0.90;0.90;;;;;;;15.74;32.74;98470.47;4838201;29;20080;-89
2023/03/21 12:13:41;;;;;;;0.60;0.60;;;;;;;15.13;32.50;98474.66;4826456;29;20103;-91
2023/03/21 12:16:26;;;;;;;0.70;0.70;;;;;;;13.53;34.94;98461.63;4846474;29;20054;-87
2023/03/21 12:19:30;;;;;;;0.70;0.70;;;;;;;13.25;35.42;98455.72;4825428;29;20064;-88
2023/03/21 12:22:09;;;;;;;0.80;0.80;;;;;;;13.71;35.10;98443.94;4851057;29;20046;-88
2023/03/21 12:24:43;;;;;;;0.80;0.80;;;;;;;13.64;34.61;98458.59;4837339;29;20144;-87
2023/03/21 12:27:37;;;;;;;1.10;1.10;;;;;;;15.31;32.51;98450.56;4838484;29;20137;-86
2023/03/21 12:30:16;;;;;;;0.90;0.90;;;;;;;15.38;31.83;98437.44;4843031;29;20054;-88
2023/03/21 12:33:21;;;;;;;0.70;0.70;;;;;;;15.58;31.40;98450.00;4827900;29;20509;-87
2023/03/21 12:36:27;;;;;;;0.50;0.50;;;;;;;12.80;34.92;98417.63;4850205;29;20048;-90
2023/03/21 12:39:27;;;;;;;1.00;1.00;;;;;;;14.56;32.88;98434.72;4778730;29;20115;-89
2023/03/21 12:42:09;;;;;;;0.90;0.90;;;;;;;15.57;31.18;98426.59;4789962;29;20054;-87
2023/03/21 12:44:40;;;;;;;0.90;0.90;;;;;;;16.00;30.72;98427.44;4786901;29;20059;-87
2023/03/21 12:47:19;;;;;;;0.90;0.90;;;;;;;16.97;29.29;98403.28;4794649;29;20055;-90
2023/03/21 12:49:51;;;;;;;0.90;0.90;;;;;;;17.98;27.89;98424.16;4815255;29;20089;-90
2023/03/21 12:52:29;;;;;;;0.90;0.90;;;;;;;18.62;26.82;98415.00;4776419;29;20404;-86
2023/03/21 12:55:03;;;;;;;0.90;0.90;;;;;;;17.59;27.56;98405.59;4778259;29;20063;-89
2023/03/21 12:58:03;;;;;;;0.70;0.70;;;;;;;16.80;28.73;98390.22;4779613;29;20062;-88
2023/03/21 13:01:11;;;;;;;0.60;0.60;;;;;;;14.70;30.96;98384.88;4788872;29;20055;-91
2023/03/21 13:03:42;;;;;;;0.90;0.90;;;;;;;14.79;31.43;98419.59;4797003;30;20059;-91
2023/03/21 13:06:17;;;;;;;1.00;1.00;;;;;;;16.13;29.38;98400.56;4760281;29;20091;-91
2023/03/21 13:09:07;;;;;;;1.00;1.00;;;;;;;16.92;28.66;98413.47;4759766;29;20062;-92
2023/03/21 13:11:43;;;;;;;0.90;0.90;;;;;;;17.18;27.58;98398.22;4824298;29;20087;-91
2023/03/21 13:14:20;;;;;;;0.90;0.90;;;;;;;17.65;27.02;98396.19;4824002;29;20046;-91